sensor_id;sensor_type;location;lat;lon;timestamp;pressure;altitude;pressure_sealevel;temperature;humidity
55010;BME280;40903;51.638;7.528;2023-08-07T00:01:28;100401.88;;;14.25;100.00
55010;BME280;40903;51.638;7.528;2023-08-07T00:03:53;100411.06;;;14.20;100.00
55010;BME280;40903;51.638;7.528;2023-08-07T00:06:19;100397.84;;;14.22;100.00
55010;BME280;40903;51.638;7.528;2023-08-07T00:08:44;100400.94;;;14.21;100.00
55010;BME280;40903;51.638;7.528;2023-08-07T00:11:10;100396.88;;;14.18;100.00
55010;BME280;40903;51.638;7.528;2023-08-07T00:13:36;100396.56;;;14.20;100.00
55010;BME280;40903;51.638;7.528;2023-08-07T00:16:02;100405.59;;;14.20;100.00
55010;BME280;40903;51.638;7.528;2023-08-07T00:18:28;100397.34;;;14.20;100.00
55010;BME280;40903;51.638;7.528;2023-08-07T00:20:54;100393.19;;;14.23;100.00
55010;BME280;40903;51.638;7.528;2023-08-07T00:23:19;100400.09;;;14.20;100.00
55010;BME280;40903;51.638;7.528;2023-08-07T00:25:45;100399.78;;;14.22;100.00
55010;BME280;40903;51.638;7.528;2023-08-07T00:28:10;100392.34;;;14.22;100.00
55010;BME280;40903;51.638;7.528;2023-08-07T00:30:35;100391.09;;;14.20;100.00
55010;BME280;40903;51.638;7.528;2023-08-07T00:33:01;100394.31;;;14.22;100.00
55010;BME280;40903;51.638;7.528;2023-08-07T00:35:26;100388.66;;;14.27;100.00
55010;BME280;40903;51.638;7.528;2023-08-07T00:37:52;100396.41;;;14.25;100.00
55010;BME280;40903;51.638;7.528;2023-08-07T00:40:17;100392.84;;;14.24;100.00
55010;BME280;40903;51.638;7.528;2023-08-07T00:42:43;100397.53;;;14.24;100.00
55010;BME280;40903;51.638;7.528;2023-08-07T00:45:09;100393.66;;;14.25;100.00
55010;BME280;40903;51.638;7.528;2023-08-07T00:47:34;100404.63;;;14.25;100.00
55010;BME280;40903;51.638;7.528;2023-08-07T00:50:02;100404.28;;;14.26;100.00
55010;BME280;40903;51.638;7.528;2023-08-07T00:52:28;100398.50;;;14.28;100.00
55010;BME280;40903;51.638;7.528;2023-08-07T00:54:53;100399.44;;;14.32;100.00
55010;BME280;40903;51.638;7.528;2023-08-07T00:57:19;100394.63;;;14.29;100.00
55010;BME280;40903;51.638;7.528;2023-08-07T00:59:48;100394.63;;;14.29;100.00
55010;BME280;40903;51.638;7.528;2023-08-07T01:02:14;100407.84;;;14.27;100.00
55010;BME280;40903;51.638;7.528;2023-08-07T01:04:40;100407.69;;;14.23;100.00
55010;BME280;40903;51.638;7.528;2023-08-07T01:07:06;100409.28;;;14.24;100.00
55010;BME280;40903;51.638;7.528;2023-08-07T01:09:31;100418.81;;;14.27;100.00
55010;BME280;40903;51.638;7.528;2023-08-07T01:12:40;100417.22;;;14.26;100.00
55010;BME280;40903;51.638;7.528;2023-08-07T01:14:57;100424.13;;;14.23;100.00
55010;BME280;40903;51.638;7.528;2023-08-07T01:17:25;100424.13;;;14.23;100.00
55010;BME280;40903;51.638;7.528;2023-08-07T01:19:51;100418.66;;;14.23;100.00
55010;BME280;40903;51.638;7.528;2023-08-07T01:22:20;100419.31;;;14.20;100.00
55010;BME280;40903;51.638;7.528;2023-08-07T01:24:48;100420.44;;;14.19;100.00
55010;BME280;40903;51.638;7.528;2023-08-07T01:29:58;100431.88;;;14.21;100.00
55010;BME280;40903;51.638;7.528;2023-08-07T01:32:32;100428.00;;;14.22;100.00
55010;BME280;40903;51.638;7.528;2023-08-07T01:35:01;100427.22;;;14.22;100.00
55010;BME280;40903;51.638;7.528;2023-08-07T01:37:30;100431.69;;;14.18;100.00
55010;BME280;40903;51.638;7.528;2023-08-07T01:39:59;100433.31;;;14.19;100.00
55010;BME280;40903;51.638;7.528;2023-08-07T01:42:26;100438.50;;;14.20;100.00
55010;BME280;40903;51.638;7.528;2023-08-07T01:44:51;100425.59;;;14.21;100.00
55010;BME280;40903;51.638;7.528;2023-08-07T01:47:17;100433.31;;;14.19;100.00
55010;BME280;40903;51.638;7.528;2023-08-07T01:49:43;100434.78;;;14.16;100.00
55010;BME280;40903;51.638;7.528;2023-08-07T01:52:08;100439.44;;;14.16;100.00
55010;BME280;40903;51.638;7.528;2023-08-07T01:54:34;100438.31;;;14.17;100.00
55010;BME280;40903;51.638;7.528;2023-08-07T01:56:59;100446.53;;;14.17;100.00
55010;BME280;40903;51.638;7.528;2023-08-07T01:59:25;100440.28;;;14.16;100.00
55010;BME280;40903;51.638;7.528;2023-08-07T02:01:50;100437.81;;;14.15;100.00
55010;BME280;40903;51.638;7.528;2023-08-07T02:04:16;100432.31;;;14.15;100.00
55010;BME280;40903;51.638;7.528;2023-08-07T02:06:42;100448.78;;;14.15;100.00
55010;BME280;40903;51.638;7.528;2023-08-07T02:09:07;100449.41;;;14.12;100.00
55010;BME280;40903;51.638;7.528;2023-08-07T02:11:32;100450.84;;;14.09;100.00
55010;BME280;40903;51.638;7.528;2023-08-07T02:13:58;100446.50;;;14.08;100.00
55010;BME280;40903;51.638;7.528;2023-08-07T02:16:23;100454.59;;;14.05;100.00
55010;BME280;40903;51.638;7.528;2023-08-07T02:18:49;100454.59;;;14.05;100.00
55010;BME280;40903;51.638;7.528;2023-08-07T02:21:14;100459.88;;;14.01;100.00
55010;BME280;40903;51.638;7.528;2023-08-07T02:23:39;100456.03;;;14.02;100.00
55010;BME280;40903;51.638;7.528;2023-08-07T02:26:05;100456.66;;;13.99;100.00
55010;BME280;40903;51.638;7.528;2023-08-07T02:28:31;100457.44;;;14.00;100.00
55010;BME280;40903;51.638;7.528;2023-08-07T02:30:56;100461.97;;;13.96;100.00
55010;BME280;40903;51.638;7.528;2023-08-07T02:33:21;100460.34;;;13.95;100.00
55010;BME280;40903;51.638;7.528;2023-08-07T02:35:47;100455.03;;;13.90;100.00
55010;BME280;40903;51.638;7.528;2023-08-07T02:38:12;100455.50;;;13.92;100.00
55010;BME280;40903;51.638;7.528;2023-08-07T02:40:37;100461.31;;;13.90;100.00
55010;BME280;40903;51.638;7.528;2023-08-07T02:43:03;100456.66;;;13.91;100.00
55010;BME280;40903;51.638;7.528;2023-08-07T02:45:28;100460.50;;;13.90;100.00
55010;BME280;40903;51.638;7.528;2023-08-07T02:47:53;100464.34;;;13.89;100.00
55010;BME280;40903;51.638;7.528;2023-08-07T02:50:19;100461.59;;;13.89;100.00
55010;BME280;40903;51.638;7.528;2023-08-07T02:52:44;100455.16;;;13.85;100.00
55010;BME280;40903;51.638;7.528;2023-08-07T02:55:09;100454.03;;;13.86;100.00
55010;BME280;40903;51.638;7.528;2023-08-07T02:57:35;100452.59;;;13.88;100.00
55010;BME280;40903;51.638;7.528;2023-08-07T03:00:01;100452.28;;;13.90;100.00
55010;BME280;40903;51.638;7.528;2023-08-07T03:02:26;100446.81;;;13.90;100.00
55010;BME280;40903;51.638;7.528;2023-08-07T03:04:51;100455.03;;;13.90;100.00
55010;BME280;40903;51.638;7.528;2023-08-07T03:07:17;100457.44;;;13.91;100.00
55010;BME280;40903;51.638;7.528;2023-08-07T03:09:45;100459.38;;;13.91;100.00
55010;BME280;40903;51.638;7.528;2023-08-07T03:12:11;100462.59;;;13.93;100.00
55010;BME280;40903;51.638;7.528;2023-08-07T03:14:37;100462.59;;;13.93;100.00
55010;BME280;40903;51.638;7.528;2023-08-07T03:17:02;100456.31;;;13.92;100.00
55010;BME280;40903;51.638;7.528;2023-08-07T03:19:27;100459.88;;;13.93;100.00
55010;BME280;40903;51.638;7.528;2023-08-07T03:21:53;100453.91;;;13.91;100.00
55010;BME280;40903;51.638;7.528;2023-08-07T03:24:18;100452.28;;;13.90;100.00
55010;BME280;40903;51.638;7.528;2023-08-07T03:26:43;100448.91;;;13.93;100.00
55010;BME280;40903;51.638;7.528;2023-08-07T03:29:09;100453.25;;;13.94;100.00
55010;BME280;40903;51.638;7.528;2023-08-07T03:31:34;100454.38;;;13.93;100.00
55010;BME280;40903;51.638;7.528;2023-08-07T03:34:00;100457.91;;;13.93;100.00
55010;BME280;40903;51.638;7.528;2023-08-07T03:36:25;100457.44;;;13.91;100.00
55010;BME280;40903;51.638;7.528;2023-08-07T03:38:50;100452.13;;;13.95;100.00
55010;BME280;40903;51.638;7.528;2023-08-07T03:41:16;100466.47;;;13.92;100.00
55010;BME280;40903;51.638;7.528;2023-08-07T03:43:41;100462.59;;;13.93;100.00
55010;BME280;40903;51.638;7.528;2023-08-07T03:46:07;100473.56;;;13.93;100.00
55010;BME280;40903;51.638;7.528;2023-08-07T03:48:32;100464.88;;;13.91;100.00
55010;BME280;40903;51.638;7.528;2023-08-07T03:51:04;100466.47;;;13.92;100.00
55010;BME280;40903;51.638;7.528;2023-08-07T03:53:30;100474.38;;;13.93;100.00
55010;BME280;40903;51.638;7.528;2023-08-07T03:55:59;100473.56;;;13.93;100.00
55010;BME280;40903;51.638;7.528;2023-08-07T03:58:24;100475.31;;;13.89;100.00
55010;BME280;40903;51.638;7.528;2023-08-07T04:00:51;100478.38;;;13.87;100.00
55010;BME280;40903;51.638;7.528;2023-08-07T04:03:16;100477.56;;;13.87;100.00
55010;BME280;40903;51.638;7.528;2023-08-07T04:05:44;100480.00;;;13.88;100.00
55010;BME280;40903;51.638;7.528;2023-08-07T04:08:10;100486.63;;;13.87;100.00
55010;BME280;40903;51.638;7.528;2023-08-07T04:10:35;100484.81;;;13.83;100.00
55010;BME280;40903;51.638;7.528;2023-08-07T04:13:00;100485.75;;;13.78;100.00
55010;BME280;40903;51.638;7.528;2023-08-07T04:15:26;100481.56;;;13.73;100.00
55010;BME280;40903;51.638;7.528;2023-08-07T04:17:51;100490.56;;;13.73;100.00
55010;BME280;40903;51.638;7.528;2023-08-07T04:20:17;100483.00;;;13.70;100.00
55010;BME280;40903;51.638;7.528;2023-08-07T04:22:45;100493.31;;;13.73;100.00
55010;BME280;40903;51.638;7.528;2023-08-07T04:25:11;100491.41;;;13.73;100.00
55010;BME280;40903;51.638;7.528;2023-08-07T04:27:36;100487.84;;;13.73;100.00
55010;BME280;40903;51.638;7.528;2023-08-07T04:30:02;100494.44;;;13.72;100.00
55010;BME280;40903;51.638;7.528;2023-08-07T04:32:27;100496.69;;;13.70;100.00
55010;BME280;40903;51.638;7.528;2023-08-07T04:34:52;100497.19;;;13.72;100.00
55010;BME280;40903;51.638;7.528;2023-08-07T04:37:18;100494.44;;;13.72;100.00
55010;BME280;40903;51.638;7.528;2023-08-07T04:39:43;100494.13;;;13.73;100.00
55010;BME280;40903;51.638;7.528;2023-08-07T04:42:08;100503.16;;;13.74;100.00
55010;BME280;40903;51.638;7.528;2023-08-07T04:44:34;100509.44;;;13.74;100.00
55010;BME280;40903;51.638;7.528;2023-08-07T04:46:59;100498.97;;;13.76;100.00
55010;BME280;40903;51.638;7.528;2023-08-07T04:49:25;100500.78;;;13.81;100.00
55010;BME280;40903;51.638;7.528;2023-08-07T04:51:50;100502.69;;;13.80;100.00
55010;BME280;40903;51.638;7.528;2023-08-07T04:54:16;100500.13;;;13.84;100.00
55010;BME280;40903;51.638;7.528;2023-08-07T04:56:41;100497.88;;;13.86;100.00
55010;BME280;40903;51.638;7.528;2023-08-07T04:59:09;100500.31;;;13.87;100.00
55010;BME280;40903;51.638;7.528;2023-08-07T05:01:35;100502.72;;;13.89;100.00
55010;BME280;40903;51.638;7.528;2023-08-07T05:04:00;100500.50;;;13.91;100.00
55010;BME280;40903;51.638;7.528;2023-08-07T05:06:27;100499.84;;;13.94;100.00
55010;BME280;40903;51.638;7.528;2023-08-07T05:08:52;100507.91;;;13.90;100.00
55010;BME280;40903;51.638;7.528;2023-08-07T05:11:17;100512.41;;;13.86;100.00
55010;BME280;40903;51.638;7.528;2023-08-07T05:13:44;100508.22;;;13.89;100.00
55010;BME280;40903;51.638;7.528;2023-08-07T05:16:10;100500.63;;;13.86;100.00
55010;BME280;40903;51.638;7.528;2023-08-07T05:18:35;100497.88;;;13.86;100.00
55010;BME280;40903;51.638;7.528;2023-08-07T05:21:00;100509.34;;;13.88;100.00
55010;BME280;40903;51.638;7.528;2023-08-07T05:23:26;100512.25;;;13.91;100.00
55010;BME280;40903;51.638;7.528;2023-08-07T05:25:51;100523.56;;;13.90;100.00
55010;BME280;40903;51.638;7.528;2023-08-07T05:28:17;100513.19;;;13.87;100.00
55010;BME280;40903;51.638;7.528;2023-08-07T05:30:42;100537.56;;;13.88;100.00
55010;BME280;40903;51.638;7.528;2023-08-07T05:33:07;100524.84;;;13.92;100.00
55010;BME280;40903;51.638;7.528;2023-08-07T05:35:33;100523.72;;;13.93;100.00
55010;BME280;40903;51.638;7.528;2023-08-07T05:37:58;100532.28;;;13.92;100.00
55010;BME280;40903;51.638;7.528;2023-08-07T05:40:24;100524.84;;;13.92;100.00
55010;BME280;40903;51.638;7.528;2023-08-07T05:42:49;100522.91;;;13.93;100.00
55010;BME280;40903;51.638;7.528;2023-08-07T05:45:15;100531.63;;;13.95;100.00
55010;BME280;40903;51.638;7.528;2023-08-07T05:47:40;100545.34;;;13.95;100.00
55010;BME280;40903;51.638;7.528;2023-08-07T05:50:06;100528.88;;;13.95;100.00
55010;BME280;40903;51.638;7.528;2023-08-07T05:52:31;100541.91;;;13.89;100.00
55010;BME280;40903;51.638;7.528;2023-08-07T05:54:57;100535.81;;;13.92;100.00
55010;BME280;40903;51.638;7.528;2023-08-07T05:57:22;100543.84;;;13.89;100.00
55010;BME280;40903;51.638;7.528;2023-08-07T05:59:47;100544.34;;;13.91;100.00
55010;BME280;40903;51.638;7.528;2023-08-07T06:02:13;100538.72;;;13.96;100.00
55010;BME280;40903;51.638;7.528;2023-08-07T06:04:38;100543.38;;;13.95;100.00
55010;BME280;40903;51.638;7.528;2023-08-07T06:07:05;100545.53;;;13.98;100.00
55010;BME280;40903;51.638;7.528;2023-08-07T06:09:31;100549.53;;;14.01;100.00
55010;BME280;40903;51.638;7.528;2023-08-07T06:11:56;100546.69;;;14.06;100.00
55010;BME280;40903;51.638;7.528;2023-08-07T06:14:21;100540.38;;;14.05;100.00
55010;BME280;40903;51.638;7.528;2023-08-07T06:16:47;100557.66;;;14.06;100.00
55010;BME280;40903;51.638;7.528;2023-08-07T06:19:13;100552.31;;;14.09;100.00
55010;BME280;40903;51.638;7.528;2023-08-07T06:21:38;100556.38;;;14.12;100.00
55010;BME280;40903;51.638;7.528;2023-08-07T06:24:04;100558.28;;;14.11;100.00
55010;BME280;40903;51.638;7.528;2023-08-07T06:26:29;100561.22;;;14.15;100.00
55010;BME280;40903;51.638;7.528;2023-08-07T06:28:54;100563.16;;;14.14;100.00
55010;BME280;40903;51.638;7.528;2023-08-07T06:31:19;100568.47;;;14.11;100.00
55010;BME280;40903;51.638;7.528;2023-08-07T06:33:45;100572.50;;;14.13;100.00
55010;BME280;40903;51.638;7.528;2023-08-07T06:36:10;100572.50;;;14.13;100.00
55010;BME280;40903;51.638;7.528;2023-08-07T06:38:36;100571.91;;;14.16;100.00
55010;BME280;40903;51.638;7.528;2023-08-07T06:41:01;100572.50;;;14.13;100.00
55010;BME280;40903;51.638;7.528;2023-08-07T06:43:27;100578.78;;;14.14;100.00
55010;BME280;40903;51.638;7.528;2023-08-07T06:45:54;100581.94;;;14.21;100.00
55010;BME280;40903;51.638;7.528;2023-08-07T06:48:19;100581.59;;;14.22;100.00
55010;BME280;40903;51.638;7.528;2023-08-07T06:50:46;100582.41;;;14.23;100.00
55010;BME280;40903;51.638;7.528;2023-08-07T06:53:12;100577.09;;;14.26;100.00
55010;BME280;40903;51.638;7.528;2023-08-07T06:55:37;100582.25;;;14.28;100.00
55010;BME280;40903;51.638;7.528;2023-08-07T06:58:03;100583.56;;;14.30;100.00
55010;BME280;40903;51.638;7.528;2023-08-07T07:00:28;100590.84;;;14.35;100.00
55010;BME280;40903;51.638;7.528;2023-08-07T07:02:54;100588.44;;;14.42;100.00
55010;BME280;40903;51.638;7.528;2023-08-07T07:05:19;100596.84;;;14.45;100.00
55010;BME280;40903;51.638;7.528;2023-08-07T07:07:44;100590.25;;;14.55;100.00
55010;BME280;40903;51.638;7.528;2023-08-07T07:10:10;100596.06;;;14.62;100.00
55010;BME280;40903;51.638;7.528;2023-08-07T07:12:36;100596.56;;;14.64;100.00
55010;BME280;40903;51.638;7.528;2023-08-07T07:15:01;100601.91;;;14.69;100.00
55010;BME280;40903;51.638;7.528;2023-08-07T07:17:27;100603.69;;;14.73;100.00
55010;BME280;40903;51.638;7.528;2023-08-07T07:19:53;100608.84;;;14.75;100.00
55010;BME280;40903;51.638;7.528;2023-08-07T07:22:18;100608.84;;;14.75;100.00
55010;BME280;40903;51.638;7.528;2023-08-07T07:24:44;100608.22;;;14.78;100.00
55010;BME280;40903;51.638;7.528;2023-08-07T07:27:09;100618.88;;;14.79;100.00
55010;BME280;40903;51.638;7.528;2023-08-07T07:29:34;100624.69;;;14.86;100.00
55010;BME280;40903;51.638;7.528;2023-08-07T07:32:00;100621.00;;;14.91;100.00
55010;BME280;40903;51.638;7.528;2023-08-07T07:34:25;100621.34;;;14.98;100.00
55010;BME280;40903;51.638;7.528;2023-08-07T07:36:51;100620.88;;;15.04;100.00
55010;BME280;40903;51.638;7.528;2023-08-07T07:39:18;100626.50;;;15.08;100.00
55010;BME280;40903;51.638;7.528;2023-08-07T07:41:44;100631.50;;;15.14;100.00
55010;BME280;40903;51.638;7.528;2023-08-07T07:44:09;100640.09;;;15.13;100.00
55010;BME280;40903;51.638;7.528;2023-08-07T07:46:35;100635.72;;;15.12;100.00
55010;BME280;40903;51.638;7.528;2023-08-07T07:49:00;100639.44;;;15.16;100.00
55010;BME280;40903;51.638;7.528;2023-08-07T07:51:28;100637.19;;;15.18;100.00
55010;BME280;40903;51.638;7.528;2023-08-07T07:53:54;100637.19;;;15.18;100.00
55010;BME280;40903;51.638;7.528;2023-08-07T07:56:19;100642.84;;;15.21;100.00
55010;BME280;40903;51.638;7.528;2023-08-07T07:58:45;100656.13;;;15.36;100.00
55010;BME280;40903;51.638;7.528;2023-08-07T08:01:11;100651.59;;;15.49;100.00
55010;BME280;40903;51.638;7.528;2023-08-07T08:03:36;100649.47;;;15.63;100.00
55010;BME280;40903;51.638;7.528;2023-08-07T08:06:02;100652.06;;;15.68;100.00
55010;BME280;40903;51.638;7.528;2023-08-07T08:08:27;100652.84;;;15.85;100.00
55010;BME280;40903;51.638;7.528;2023-08-07T08:10:53;100660.09;;;15.98;100.00
55010;BME280;40903;51.638;7.528;2023-08-07T08:13:18;100670.47;;;15.92;100.00
55010;BME280;40903;51.638;7.528;2023-08-07T08:15:44;100667.88;;;15.96;100.00
55010;BME280;40903;51.638;7.528;2023-08-07T08:18:11;100674.34;;;15.91;100.00
55010;BME280;40903;51.638;7.528;2023-08-07T08:20:39;100673.88;;;15.89;100.00
55010;BME280;40903;51.638;7.528;2023-08-07T08:23:05;100683.41;;;16.00;100.00
55010;BME280;40903;51.638;7.528;2023-08-07T08:25:31;100690.31;;;16.15;100.00
55010;BME280;40903;51.638;7.528;2023-08-07T08:27:58;100689.78;;;16.30;100.00
55010;BME280;40903;51.638;7.528;2023-08-07T08:30:24;100690.44;;;16.35;100.00
55010;BME280;40903;51.638;7.528;2023-08-07T08:32:49;100690.38;;;16.52;100.00
55010;BME280;40903;51.638;7.528;2023-08-07T08:35:15;100691.03;;;16.58;100.00
55010;BME280;40903;51.638;7.528;2023-08-07T08:37:40;100696.19;;;16.59;100.00
55010;BME280;40903;51.638;7.528;2023-08-07T08:40:08;100701.53;;;16.64;100.00
55010;BME280;40903;51.638;7.528;2023-08-07T08:42:34;100711.88;;;16.67;100.00
55010;BME280;40903;51.638;7.528;2023-08-07T08:45:00;100711.19;;;16.70;100.00
55010;BME280;40903;51.638;7.528;2023-08-07T08:47:26;100714.44;;;16.72;100.00
55010;BME280;40903;51.638;7.528;2023-08-07T08:50:09;100715.44;;;16.68;100.00
55010;BME280;40903;51.638;7.528;2023-08-07T08:52:40;100721.38;;;16.78;100.00
55010;BME280;40903;51.638;7.528;2023-08-07T08:55:06;100727.31;;;16.89;100.00
55010;BME280;40903;51.638;7.528;2023-08-07T08:57:33;100725.34;;;16.98;100.00
55010;BME280;40903;51.638;7.528;2023-08-07T09:00:00;100733.81;;;17.13;100.00
55010;BME280;40903;51.638;7.528;2023-08-07T09:02:27;100729.56;;;17.24;100.00
55010;BME280;40903;51.638;7.528;2023-08-07T09:04:54;100730.59;;;17.40;100.00
55010;BME280;40903;51.638;7.528;2023-08-07T09:07:20;100730.34;;;17.54;100.00
55010;BME280;40903;51.638;7.528;2023-08-07T09:09:46;100745.34;;;17.65;100.00
55010;BME280;40903;51.638;7.528;2023-08-07T09:12:20;100755.78;;;17.80;100.00
55010;BME280;40903;51.638;7.528;2023-08-07T09:14:49;100744.50;;;17.73;100.00
55010;BME280;40903;51.638;7.528;2023-08-07T09:17:18;100744.75;;;17.80;100.00
55010;BME280;40903;51.638;7.528;2023-08-07T09:19:43;100751.19;;;17.83;100.00
55010;BME280;40903;51.638;7.528;2023-08-07T09:22:09;100749.03;;;17.89;100.00
55010;BME280;40903;51.638;7.528;2023-08-07T09:24:34;100748.28;;;18.00;100.00
55010;BME280;40903;51.638;7.528;2023-08-07T09:26:59;100750.94;;;18.29;100.00
55010;BME280;40903;51.638;7.528;2023-08-07T09:29:26;100751.50;;;18.67;100.00
55010;BME280;40903;51.638;7.528;2023-08-07T09:31:54;100756.59;;;18.89;100.00
55010;BME280;40903;51.638;7.528;2023-08-07T09:34:20;100765.72;;;19.26;100.00
55010;BME280;40903;51.638;7.528;2023-08-07T09:36:46;100766.41;;;19.47;100.00
55010;BME280;40903;51.638;7.528;2023-08-07T09:39:14;100764.31;;;19.44;100.00
55010;BME280;40903;51.638;7.528;2023-08-07T09:41:39;100768.94;;;19.28;100.00
55010;BME280;40903;51.638;7.528;2023-08-07T09:44:10;100769.53;;;19.33;100.00
55010;BME280;40903;51.638;7.528;2023-08-07T09:46:44;100779.44;;;19.46;100.00
55010;BME280;40903;51.638;7.528;2023-08-07T09:49:10;100772.88;;;19.27;100.00
55010;BME280;40903;51.638;7.528;2023-08-07T09:51:43;100780.13;;;19.43;100.00
55010;BME280;40903;51.638;7.528;2023-08-07T09:54:09;100784.16;;;19.46;100.00
55010;BME280;40903;51.638;7.528;2023-08-07T09:56:35;100788.44;;;19.43;100.00
55010;BME280;40903;51.638;7.528;2023-08-07T09:59:01;100790.84;;;19.21;100.00
55010;BME280;40903;51.638;7.528;2023-08-07T10:01:26;100799.44;;;19.07;100.00
55010;BME280;40903;51.638;7.528;2023-08-07T10:03:52;100802.50;;;19.26;100.00
55010;BME280;40903;51.638;7.528;2023-08-07T10:06:19;100799.03;;;19.53;100.00
55010;BME280;40903;51.638;7.528;2023-08-07T10:08:45;100803.03;;;19.68;100.00
55010;BME280;40903;51.638;7.528;2023-08-07T10:11:11;100805.47;;;19.57;98.49
55010;BME280;40903;51.638;7.528;2023-08-07T10:13:37;100797.69;;;19.75;99.69
55010;BME280;40903;51.638;7.528;2023-08-07T10:16:04;100795.03;;;19.90;100.00
55010;BME280;40903;51.638;7.528;2023-08-07T10:18:29;100799.72;;;20.13;98.09
55010;BME280;40903;51.638;7.528;2023-08-07T10:20:55;100796.69;;;20.18;95.03
55010;BME280;40903;51.638;7.528;2023-08-07T10:23:23;100797.28;;;20.39;93.95
55010;BME280;40903;51.638;7.528;2023-08-07T10:25:49;100797.25;;;20.67;95.30
55010;BME280;40903;51.638;7.528;2023-08-07T10:28:16;100793.88;;;20.73;84.08
55010;BME280;40903;51.638;7.528;2023-08-07T10:30:43;100804.13;;;20.73;83.59
55010;BME280;40903;51.638;7.528;2023-08-07T10:33:10;100800.97;;;20.43;81.21
55010;BME280;40903;51.638;7.528;2023-08-07T10:35:37;100810.38;;;20.27;84.54
55010;BME280;40903;51.638;7.528;2023-08-07T10:38:09;100818.19;;;19.97;84.28
55010;BME280;40903;51.638;7.528;2023-08-07T10:43:30;100826.78;;;19.69;85.56
55010;BME280;40903;51.638;7.528;2023-08-07T10:46:25;100835.31;;;19.76;88.72
55010;BME280;40903;51.638;7.528;2023-08-07T10:48:55;100832.56;;;19.64;86.22
55010;BME280;40903;51.638;7.528;2023-08-07T10:51:30;100829.78;;;19.52;91.02
55010;BME280;40903;51.638;7.528;2023-08-07T10:53:56;100832.19;;;19.77;95.97
55010;BME280;40903;51.638;7.528;2023-08-07T10:56:35;100818.53;;;20.08;95.14
55010;BME280;40903;51.638;7.528;2023-08-07T10:59:10;100817.13;;;20.41;95.07
55010;BME280;40903;51.638;7.528;2023-08-07T11:04:14;100819.16;;;20.99;91.56
55010;BME280;40903;51.638;7.528;2023-08-07T11:06:41;100820.41;;;21.17;89.01
55010;BME280;40903;51.638;7.528;2023-08-07T11:09:08;100825.28;;;21.39;84.36
55010;BME280;40903;51.638;7.528;2023-08-07T11:11:41;100814.28;;;21.43;82.24
55010;BME280;40903;51.638;7.528;2023-08-07T11:14:09;100824.06;;;21.37;75.78
55010;BME280;40903;51.638;7.528;2023-08-07T11:16:35;100830.41;;;21.06;72.64
55010;BME280;40903;51.638;7.528;2023-08-07T11:19:01;100836.16;;;21.13;74.34
55010;BME280;40903;51.638;7.528;2023-08-07T11:21:27;100831.94;;;21.19;75.38
55010;BME280;40903;51.638;7.528;2023-08-07T11:23:54;100829.88;;;21.32;75.07
55010;BME280;40903;51.638;7.528;2023-08-07T11:26:19;100843.47;;;21.52;76.09
55010;BME280;40903;51.638;7.528;2023-08-07T11:28:49;100832.09;;;21.73;78.30
55010;BME280;40903;51.638;7.528;2023-08-07T11:31:14;100829.63;;;21.87;75.35
55010;BME280;40903;51.638;7.528;2023-08-07T11:33:40;100828.44;;;22.03;71.10
55010;BME280;40903;51.638;7.528;2023-08-07T11:36:15;100827.50;;;21.80;67.00
55010;BME280;40903;51.638;7.528;2023-08-07T11:38:42;100819.66;;;21.51;69.57
55010;BME280;40903;51.638;7.528;2023-08-07T11:41:11;100834.06;;;21.10;68.90
55010;BME280;40903;51.638;7.528;2023-08-07T11:43:37;100846.44;;;20.70;67.72
55010;BME280;40903;51.638;7.528;2023-08-07T11:46:05;100849.22;;;20.42;74.03
55010;BME280;40903;51.638;7.528;2023-08-07T11:48:33;100853.44;;;20.24;75.57
55010;BME280;40903;51.638;7.528;2023-08-07T11:50:59;100854.84;;;20.18;76.45
55010;BME280;40903;51.638;7.528;2023-08-07T11:53:27;100859.69;;;20.21;73.86
55010;BME280;40903;51.638;7.528;2023-08-07T11:55:57;100857.59;;;20.18;74.45
55010;BME280;40903;51.638;7.528;2023-08-07T11:58:45;100853.97;;;19.91;73.75
55010;BME280;40903;51.638;7.528;2023-08-07T12:01:15;100866.88;;;19.75;74.18
55010;BME280;40903;51.638;7.528;2023-08-07T12:03:58;100863.78;;;19.64;75.82
55010;BME280;40903;51.638;7.528;2023-08-07T12:06:34;100864.34;;;19.82;79.09
55010;BME280;40903;51.638;7.528;2023-08-07T12:09:01;100871.38;;;20.03;75.54
55010;BME280;40903;51.638;7.528;2023-08-07T12:11:28;100875.59;;;20.24;74.60
55010;BME280;40903;51.638;7.528;2023-08-07T12:13:54;100864.53;;;20.52;77.17
55010;BME280;40903;51.638;7.528;2023-08-07T12:16:20;100862.66;;;20.83;75.25
55010;BME280;40903;51.638;7.528;2023-08-07T12:18:50;100872.22;;;21.13;71.14
55010;BME280;40903;51.638;7.528;2023-08-07T12:21:17;100870.13;;;20.95;67.88
55010;BME280;40903;51.638;7.528;2023-08-07T12:23:48;100871.44;;;20.85;67.82
55010;BME280;40903;51.638;7.528;2023-08-07T12:26:13;100879.38;;;20.59;67.92
55010;BME280;40903;51.638;7.528;2023-08-07T12:28:39;100875.25;;;20.81;65.73
55010;BME280;40903;51.638;7.528;2023-08-07T12:31:04;100870.06;;;21.07;65.22
55010;BME280;40903;51.638;7.528;2023-08-07T12:33:30;100863.78;;;21.10;64.01
55010;BME280;40903;51.638;7.528;2023-08-07T12:35:56;100876.50;;;21.11;59.76
55010;BME280;40903;51.638;7.528;2023-08-07T12:38:22;100878.53;;;21.14;61.10
55010;BME280;40903;51.638;7.528;2023-08-07T12:40:47;100883.94;;;21.38;63.94
55010;BME280;40903;51.638;7.528;2023-08-07T12:43:13;100894.03;;;21.61;61.47
55010;BME280;40903;51.638;7.528;2023-08-07T12:45:38;100903.66;;;21.64;53.32
55010;BME280;40903;51.638;7.528;2023-08-07T12:48:04;100894.44;;;21.75;59.57